Latest Coastal Weather Observations for Green Cape

IDN60701

Issued at 8:35 am EST Thursday 2 October 2014 (issued every 10 minutes, with the page automatically refreshed every 10 minutes)

About coastal observations | Map of coastal stations | Coastal observations for NSW | Marine services | Other Formats
Station Details ID: 069137 Name: GREEN CAPE AWS Lat: -37.26 Lon: 150.05 Height: 19.4 m
Data from the previous 72 hours. | See also: Recent months at Green Cape
Date/Time
EST
Temp

°C
Wind Pressure Rain
since 9am
mm
Weather Cloud Vis
km
Sea
Height
m
Swell
Dir
 
Speed
knots
Gust
knots
hPa Trend Height
m
Period
s
Dir
02/08:30am 14.3 WSW 10 15 1020.0 - 0.2 - - - - - - -
02/08:00am 13.7 W 8 12 1020.2 - 0.2 - - - - - - -
02/07:30am 13.1 NW 4 8 1020.1 - 0.2 - - - - - - -
02/07:00am 12.5 WNW 7 10 1020.2 - 0.2 - - - - - - -
02/06:30am 11.9 W 12 15 1020.2 - 0.2 - - - - - - -
02/06:00am 11.5 W 12 14 1020.4 - 0.2 - - - - - - -
02/05:30am 11.3 W 10 13 1020.2 - 0.2 - - - - - - -
02/05:00am 11.3 W 10 15 1020.0 - 0.2 - - - - - - -
02/04:30am 11.4 W 12 15 1019.9 - 0.2 - - - - - - -
02/04:00am 11.5 W 14 21 1020.0 - 0.2 - - - - - - -
02/03:30am 11.8 W 14 18 1020.1 - 0.2 - - - - - - -
02/03:00am 12.1 WSW 14 18 1020.5 - 0.2 - - - - - - -
02/02:30am 11.8 W 13 19 1020.6 - 0.2 - - - - - - -
02/02:00am 11.7 W 14 18 1020.7 - 0.2 - - - - - - -
02/01:30am 11.9 W 17 21 1020.7 - 0.2 - - - - - - -
02/01:00am 12.0 W 18 23 1021.1 - 0.2 - - - - - - -
02/12:30am 11.8 W 13 16 1021.3 - 0.2 - - - - - - -
02/12:00am 12.0 WSW 16 19 1021.5 - 0.2 - - - - - - -
 
Date/Time
EST
Temp

°C
Wind Pressure Rain
since 9am
mm
Weather Cloud Vis
km
Sea
Height
m
Swell
Dir
 
Speed
knots
Gust
knots
hPa Trend Height
m
Period
s
Dir
01/11:30pm 12.1 WSW 15 19 1021.8 - 0.2 - - - - - - -
01/11:00pm 11.6 W 14 16 1021.9 - 0.2 - - - - - - -
01/10:30pm 11.5 WSW 13 18 1022.3 - 0.2 - - - - - - -
01/10:00pm 11.9 WSW 17 20 1022.4 - 0.2 - - - - - - -
01/09:30pm 11.9 W 9 12 1022.5 - 0.2 - - - - - - -
01/09:00pm 11.8 W 10 12 1022.3 - 0.2 - - - - - - -
01/08:30pm 12.0 W 11 16 1022.3 - 0.2 - - - - - - -
01/08:00pm 12.1 W 11 15 1022.1 - 0.2 - - - - - - -
01/07:30pm 12.4 WSW 12 14 1021.8 - 0.2 - - - - - - -
01/07:00pm 12.6 SW 14 19 1021.4 - 0.2 - - - - - - -
01/06:30pm 12.7 SW 15 18 1020.9 - 0.2 - - - - - - -
01/06:00pm 12.8 SW 18 21 1020.6 - 0.2 - - - - - - -
01/05:30pm 13.1 SW 21 25 1020.5 - 0.2 - - - - - - -
01/05:00pm 13.6 SW 26 33 1020.0 - 0.2 - - - - - - -
01/04:43pm 13.8 SW 23 34 1019.7 - 0.2 - - - - - - -
01/04:30pm 13.9 SW 22 27 1019.6 - 0.2 - - - - - - -
01/04:09pm 14.1 SW 25 35 1019.3 - 0.2 - - - - - - -
01/04:00pm 14.0 SW 28 35 1019.0 - 0.2 - - - - - - -
01/03:30pm 14.1 SW 22 28 1019.4 - 0.2 - - - - - - -
01/03:06pm 14.1 SW 28 39 1018.5 - 0.2 - - - - - - -
01/03:00pm 14.4 SW 26 30 1018.7 - 0.2 - - - - - - -
01/02:30pm 14.3 SW 28 38 1018.1 - 0.2 - - - - - - -
01/02:04pm 14.2 SW 25 35 1018.2 - 0.2 - - - - - - -
01/02:00pm 13.9 SW 24 29 1018.2 - 0.2 - - - - - - -
01/01:43pm 13.9 SW 24 38 1018.1 - 0.2 - - - - - - -
01/01:30pm 14.2 WSW 22 28 1018.5 - 0.2 - - - - - - -
01/01:04pm 14.1 SW 31 41 1018.1 - 0.2 - - - - - - -
01/01:00pm 13.9 SW 33 41 1017.9 - 0.2 - - - - - - -
01/12:36pm 13.9 WSW 25 38 1018.1 - 0.2 - - - - - - -
01/12:30pm 13.7 SW 24 34 1018.3 - 0.2 - - - - - - -
01/12:00pm 13.0 SW 29 43 1017.9 - 0.2 - - - - - - -
01/11:39am 12.6 WSW 29 40 1018.0 - 0.2 - - - - - - -
01/11:30am 12.4 WSW 27 34 1018.0 - 0.2 - - - - - - -
01/11:18am 11.6 WSW 24 27 1018.2 - 0.2 - - - - - - -
01/11:07am 10.4 SW 36 46 1018.1 - 0.2 - - - - - - -
01/11:00am 11.0 SW 39 46 1017.5 - 0.2 - - - - - - -
01/10:52am 12.3 SW 25 35 1017.9 - 0.0 - - - - - - -
01/10:30am 10.8 SW 28 34 1017.7 - 0.0 - - - - - - -
01/10:00am 12.2 WSW 33 43 1017.2 - 0.0 - - - - - - -
01/09:59am 12.3 WSW 33 43 1017.2 - 0.0 - - - - - - -
01/09:30am 11.9 WSW 35 42 1016.6 - 0.0 - - - - - - -
01/09:00am 11.2 WSW 32 42 1016.4 - 1.6 - - - - - - -
01/08:40am 11.4 WSW 32 45 1016.0 - 1.6 - - - - - - -
01/08:30am 10.8 WSW 35 42 1015.8 - 1.6 - - - - - - -
01/08:08am 10.5 WSW 35 46 1015.1 - 1.6 - - - - - - -
01/08:00am 10.5 WSW 36 45 1015.0 - 1.6 - - - - - - -
01/07:30am 10.2 WSW 37 49 1014.5 - 1.6 - - - - - - -
01/07:22am 9.7 W 33 44 1014.3 - 1.6 - - - - - - -
01/07:00am 9.5 WSW 29 37 1014.4 - 1.6 - - - - - - -
01/06:33am 8.3 W 26 37 1014.7 - 1.6 - - - - - - -
01/06:30am 8.5 W 28 37 1014.6 - 1.6 - - - - - - -
01/06:02am 10.2 WSW 30 42 1014.3 - 1.6 - - - - - - -
01/06:00am 10.5 WSW 29 39 1014.4 - 1.6 - - - - - - -
01/05:45am 10.4 WSW 27 38 1013.6 - 1.6 - - - - - - -
01/05:30am 10.7 WSW 28 37 1013.0 - 1.6 - - - - - - -
01/05:00am 10.6 W 26 32 1012.0 - 1.6 - - - - - - -
01/04:38am 10.7 W 30 42 1011.1 - 1.6 - - - - - - -
01/04:30am 10.8 WSW 31 41 1011.0 - 1.6 - - - - - - -
01/04:00am 10.8 W 33 45 1010.3 - 1.6 - - - - - - -
01/03:41am 11.0 W 31 42 1010.0 - 1.6 - - - - - - -
01/03:30am 10.9 W 29 38 1010.2 - 1.6 - - - - - - -
01/03:00am 11.2 W 28 38 1010.2 - 1.6 - - - - - - -
01/02:36am 11.0 WSW 31 42 1010.0 - 1.6 - - - - - - -
01/02:30am 10.9 WSW 32 40 1009.8 - 1.6 - - - - - - -
01/02:07am 10.8 W 27 40 1009.8 - 1.6 - - - - - - -
01/02:00am 11.2 W 28 34 1009.8 - 1.6 - - - - - - -
01/01:39am 11.1 WSW 25 36 1010.0 - 1.6 - - - - - - -
01/01:30am 11.0 WSW 27 36 1009.9 - 1.6 - - - - - - -
01/01:00am 11.2 WSW 29 35 1009.3 - 1.6 - - - - - - -
01/12:30am 10.8 WSW 24 28 1009.2 - 1.6 - - - - - - -
01/12:00am 10.7 WSW 25 33 1009.3 - 1.6 Recent precip. - - - - - -
 
Date/Time
EST
Temp

°C
Wind Pressure Rain
since 9am
mm
Weather Cloud Vis
km
Sea
Height
m
Swell
Dir
 
Speed
knots
Gust
knots
hPa Trend Height
m
Period
s
Dir
30/11:30pm 9.4 WSW 29 35 1009.8 - 1.6 - - - - - - -
30/11:00pm 9.3 WSW 35 48 1009.9 - 0.4 - - - - - - -
30/10:47pm 9.7 WSW 32 43 1009.6 - 0.0 - - - - - - -
30/10:30pm 10.2 WSW 31 40 1009.5 - 0.0 - - - - - - -
30/10:04pm 11.8 WSW 35 47 1008.8 - 0.0 - - - - - - -
30/10:00pm 12.0 WSW 33 40 1008.8 - 0.0 - - - - - - -
30/09:30pm 12.7 SW 33 44 1008.9 - 0.0 - - - - - - -
30/09:00pm 13.2 SW 29 40 1008.4 - 0.0 - - - - - - -
30/08:42pm 13.6 SW 31 43 1008.7 - 0.0 - - - - - - -
30/08:30pm 14.3 SW 33 38 1007.6 - 0.0 - - - - - - -
30/08:29pm 14.4 SW 32 38 1007.5 - 0.0 - - - - - - -
30/08:09pm 15.9 SW 43 53 1006.1 - 0.0 - - - - - - -
30/08:02pm 18.0 WSW 44 51 1004.8 - 0.0 - - - - - - -
30/08:01pm 20.2 W 17 51 1005.1 - 0.0 - - - - - - -
30/08:00pm 21.6 W 14 33 1005.2 - 0.0 - - - - - - -
30/07:30pm 22.4 NNW 8 12 1003.7 - 0.0 - - - - - - -
30/07:00pm 23.1 NW 10 16 1003.2 - 0.0 - - - - - - -
30/06:30pm 23.8 NW 16 31 1003.3 - 0.0 - - - - - - -
30/06:16pm 24.1 NW 15 27 1003.0 - 0.0 - - - - - - -
30/06:00pm 23.3 NW 9 14 1002.6 - 0.0 - - - - - - -
30/05:30pm 23.5 NW 10 15 1002.1 - 0.0 - - - - - - -
30/05:00pm 18.4 NNE 10 12 1002.0 - 0.0 - - - - - - -
30/04:30pm 18.3 NNE 13 16 1001.9 - 0.0 - - - - - - -
30/04:00pm 18.4 NNE 13 16 1002.1 - 0.0 - - - - - - -
30/03:30pm 18.9 N 12 15 1002.4 - 0.0 - - - - - - -
30/03:00pm 18.5 N 13 15 1002.6 - 0.0 - - - - - - -
30/02:30pm 18.6 N 14 16 1003.2 - 0.0 - - - - - - -
30/02:00pm 18.4 N 14 16 1004.2 - 0.0 - - - - - - -
30/01:30pm 18.4 N 17 19 1004.7 - 0.0 - - - - - - -
30/01:00pm 18.3 N 15 17 1005.1 - 0.0 - - - - - - -
30/12:30pm 18.7 N 12 14 1006.0 - 0.0 - - - - - - -
30/12:00pm 18.8 N 12 13 1006.6 - 0.0 - - - - - - -
30/11:30am 18.9 N 11 12 1007.2 - 0.0 - - - - - - -
30/11:00am 18.7 N 10 11 1007.8 - 0.0 - - - - - - -
30/10:30am 18.4 N 10 11 1008.5 - 0.0 - - - - - - -
30/10:00am 18.3 N 9 10 1009.1 - 0.0 - - - - - - -
30/09:30am 18.2 N 8 9 1009.6 - 0.0 - - - - - - -
30/09:00am 17.6 NNE 6 7 1009.8 - 0.0 - - - - - - -
30/08:30am 16.6 NNE 1 2 1010.0 - 0.0 - - - - - - -
30/08:00am 13.4 W 5 6 1010.3 - 0.0 - - - - - - -
30/07:30am 12.4 W 7 8 1010.5 - 0.0 - - - - - - -
30/07:00am 11.9 WNW 7 9 1010.8 - 0.0 - - - - - - -
30/06:30am 13.1 W 3 6 1010.9 - 0.0 - - - - - - -
30/06:00am 12.8 NNW 5 6 1010.7 - 0.0 - - - - - - -
30/05:30am 12.3 NW 5 6 1010.7 - 0.0 - - - - - - -
30/05:00am 13.0 N 6 7 1010.6 - 0.0 - - - - - - -
30/04:30am 12.0 W 5 6 1010.9 - 0.0 - - - - - - -
30/04:00am 12.7 W 4 6 1011.1 - 0.0 - - - - - - -
30/03:30am 12.9 NNW 5 8 1010.9 - 0.0 - - - - - - -
30/03:00am 13.3 N 8 10 1010.9 - 0.0 - - - - - - -
30/02:30am 13.4 N 8 10 1011.1 - 0.0 - - - - - - -
30/02:00am 13.7 N 8 9 1011.4 - 0.0 - - - - - - -
30/01:30am 13.9 N 7 9 1011.7 - 0.0 - - - - - - -
30/01:00am 14.5 N 9 12 1012.2 - 0.0 - - - - - - -
30/12:30am 15.2 N 14 16 1012.4 - 0.0 - - - - - - -
30/12:00am 15.1 NNE 12 13 1012.9 - 0.0 - - - - - - -
 
Date/Time
EST
Temp

°C
Wind Pressure Rain
since 9am
mm
Weather Cloud Vis
km
Sea
Height
m
Swell
Dir
 
Speed
knots
Gust
knots
hPa Trend Height
m
Period
s
Dir
29/11:30pm 15.2 N 11 12 1013.4 - 0.0 - - - - - - -
29/11:00pm 15.3 N 11 13 1013.7 - 0.0 - - - - - - -
29/10:30pm 15.4 N 12 14 1014.0 - 0.0 - - - - - - -
29/10:00pm 15.5 N 13 15 1014.2 - 0.0 - - - - - - -
29/09:30pm 15.6 NNE 14 16 1014.2 - 0.0 - - - - - - -
29/09:00pm 15.7 NNE 14 16 1014.4 - 0.0 - - - - - - -
29/08:30pm 15.7 NNE 13 15 1014.7 - 0.0 - - - - - - -
29/08:00pm 15.6 NNE 12 14 1014.8 - 0.0 - - - - - - -
29/07:30pm 15.6 NNE 12 14 1014.7 - 0.0 - - - - - - -
29/07:00pm 15.6 NNE 11 13 1014.5 - 0.0 - - - - - - -
29/06:30pm 15.6 NNE 10 12 1014.3 - 0.0 - - - - - - -
29/06:00pm 15.8 NNE 9 10 1014.0 - 0.0 - - - - - - -
29/05:30pm 16.4 NE 8 10 1013.6 - 0.0 - - - - - - -
29/05:00pm 16.7 ENE 5 6 1013.5 - 0.0 - - - - - - -
29/04:30pm 17.3 SE 7 9 1013.2 - 0.0 - - - - - - -
29/04:00pm 17.4 SSE 11 13 1012.9 - 0.0 - - - - - - -
29/03:30pm 17.7 SSE 13 15 1012.7 - 0.0 - - - - - - -
29/03:00pm 17.9 S 16 21 1012.3 - 0.0 - - - - - - -
29/02:30pm 18.0 S 19 22 1012.1 - 0.0 - - - - - - -
29/02:00pm 18.1 S 21 24 1012.0 - 0.0 - - - - - - -
29/01:30pm 18.0 S 20 27 1012.2 - 0.0 - - - - - - -
29/01:00pm 17.6 S 24 29 1011.8 - 0.0 - - - - - - -
29/12:30pm 18.4 S 23 26 1011.8 - 0.0 - - - - - - -
29/12:00pm 18.6 S 21 24 1011.7 - 0.0 - - - - - - -
29/11:30am 19.2 S 19 22 1012.0 - 0.0 - - - - - - -
29/11:00am 18.4 S 21 24 1011.9 - 0.0 - - - - - - -
29/10:30am 18.6 S 20 22 1012.1 - 0.0 - - - - - - -
29/10:00am 18.6 S 19 21 1012.3 - 0.0 - - - - - - -
29/09:30am 18.8 S 14 17 1012.6 - 0.0 - - - - - - -
29/09:00am 17.6 S 13 15 1012.7 - 0.0 - - - - - - -

Other Formats:

Comma delimited format used in spreadsheet applications
http://www.bom.gov.au/fwo/IDN60701/IDN60701.94934.axf

JavaScript Object Notation format (JSON) in row-major order
http://www.bom.gov.au/fwo/IDN60701/IDN60701.94934.json